createdAt,value
2018-06-22T00:00:36.511Z,50.24
2018-06-22T00:01:36.453Z,50.4
2018-06-22T00:02:36.454Z,50.64
2018-06-22T00:03:36.474Z,50.36
2018-06-22T00:04:36.455Z,50.61
2018-06-22T00:05:36.469Z,50.42
2018-06-22T00:06:36.481Z,50.26
2018-06-22T00:07:36.444Z,50.48
2018-06-22T00:08:36.527Z,50.5
2018-06-22T00:09:36.445Z,50.46
2018-06-22T00:10:36.493Z,50.46
2018-06-22T00:11:36.454Z,50.71
2018-06-22T00:12:36.480Z,50.91
2018-06-22T00:13:36.506Z,50.83
2018-06-22T00:14:36.499Z,50.76
2018-06-22T00:15:36.473Z,50.66
2018-06-22T00:16:36.453Z,50.86
2018-06-22T00:17:36.466Z,50.86
2018-06-22T00:18:36.460Z,50.77
2018-06-22T00:19:36.481Z,51.3
2018-06-22T00:20:36.458Z,51.64
2018-06-22T00:21:36.462Z,51.74
2018-06-22T00:22:36.500Z,51.15
2018-06-22T00:23:36.470Z,51.63
2018-06-22T00:24:36.593Z,52.32
2018-06-22T00:25:36.485Z,52.05
2018-06-22T00:26:36.463Z,52.16
2018-06-22T00:27:36.488Z,52.04
2018-06-22T00:28:36.466Z,52.26
2018-06-22T00:29:36.493Z,52.24
2018-06-22T00:30:36.478Z,52.46
2018-06-22T00:31:36.469Z,52.75
2018-06-22T00:32:36.482Z,52.56
2018-06-22T00:33:36.492Z,53
2018-06-22T00:34:36.501Z,53.13
2018-06-22T00:35:36.497Z,53.02
2018-06-22T00:36:36.494Z,53.76
2018-06-22T00:37:36.472Z,53.81
2018-06-22T00:38:36.491Z,53.79
2018-06-22T00:39:36.502Z,53.53
2018-06-22T00:40:36.497Z,54.08
2018-06-22T00:41:36.515Z,54.1
2018-06-22T00:42:36.485Z,54.06
2018-06-22T00:43:36.462Z,54.06
2018-06-22T00:44:36.495Z,54.41
2018-06-22T00:45:36.493Z,54.07
2018-06-22T00:46:36.501Z,53.99
2018-06-22T00:47:36.487Z,53.88
2018-06-22T00:48:36.559Z,54.22
2018-06-22T00:49:36.521Z,54.42
2018-06-22T00:50:36.504Z,54.03
2018-06-22T00:51:36.475Z,53.96
2018-06-22T00:52:36.506Z,54.08
2018-06-22T00:53:36.516Z,54.28
2018-06-22T00:54:36.474Z,54.67
2018-06-22T00:55:36.659Z,54.79
2018-06-22T00:56:36.492Z,54.74
2018-06-22T00:57:36.480Z,54.72
2018-06-22T00:58:36.475Z,54.58
2018-06-22T00:59:36.479Z,54.93
2018-06-22T01:00:36.505Z,54.64
2018-06-22T01:01:36.476Z,54.95
2018-06-22T01:02:36.493Z,54.88
2018-06-22T01:03:36.506Z,55.81
2018-06-22T01:04:36.503Z,55.34
2018-06-22T01:05:36.548Z,55.41
2018-06-22T01:06:36.502Z,55.76
2018-06-22T01:07:36.501Z,55.87
2018-06-22T01:08:36.492Z,56.23
2018-06-22T01:09:36.499Z,56.04
2018-06-22T01:10:36.504Z,56.55
2018-06-22T01:11:36.494Z,56.4
2018-06-22T01:12:36.502Z,56.13
2018-06-22T01:13:36.499Z,56.18
2018-06-22T01:14:36.500Z,56.25
2018-06-22T01:15:36.480Z,56
2018-06-22T01:16:36.484Z,56.85
2018-06-22T01:17:36.517Z,56.55
2018-06-22T01:18:36.502Z,56.39
2018-06-22T01:19:36.520Z,56.01
2018-06-22T01:20:36.526Z,55.87
2018-06-22T01:21:36.563Z,56.25
2018-06-22T01:22:36.832Z,56.2
2018-06-22T01:23:36.491Z,56.08
2018-06-22T01:24:36.504Z,56.01
2018-06-22T01:25:36.501Z,56.06
2018-06-22T01:26:36.508Z,56
2018-06-22T01:27:36.547Z,56.24
2018-06-22T01:28:36.535Z,56.42
2018-06-22T01:29:36.502Z,56.18
2018-06-22T01:30:36.528Z,56.6
2018-06-22T01:31:36.635Z,56.77
2018-06-22T01:32:36.486Z,56.77
2018-06-22T01:33:36.497Z,56.27
2018-06-22T01:34:36.498Z,57.36
2018-06-22T01:35:36.555Z,57.04
2018-06-22T01:36:36.513Z,56.6
2018-06-22T01:37:36.491Z,57.36
2018-06-22T01:38:36.510Z,57.44
2018-06-22T01:39:36.537Z,57.48
2018-06-22T01:40:36.527Z,57.35
2018-06-22T01:41:36.512Z,57.4
2018-06-22T01:42:36.537Z,57.69
2018-06-22T01:43:36.679Z,57.65
2018-06-22T01:44:36.513Z,57.67
2018-06-22T01:45:36.510Z,57.48
2018-06-22T01:46:36.631Z,57.9
2018-06-22T01:47:36.498Z,58.2
2018-06-22T01:48:36.502Z,58.12
2018-06-22T01:49:36.521Z,58.42
2018-06-22T01:50:36.512Z,58.4
2018-06-22T01:51:36.535Z,58.89
2018-06-22T01:52:36.682Z,58.87
2018-06-22T01:53:36.512Z,58.93
2018-06-22T01:54:36.509Z,58.88
2018-06-22T01:55:36.579Z,58.39
2018-06-22T01:56:36.516Z,58.48
2018-06-22T01:57:36.559Z,58.62
2018-06-22T01:58:36.575Z,58.58
2018-06-22T01:59:36.522Z,58.71
2018-06-22T02:00:36.598Z,59.34
2018-06-22T02:01:36.537Z,59.16
2018-06-22T02:02:36.561Z,58.89
2018-06-22T02:03:36.508Z,58.49
2018-06-22T02:04:36.539Z,59.23
2018-06-22T02:05:36.569Z,59.93
2018-06-22T02:06:36.594Z,60.28
2018-06-22T02:07:36.576Z,59.96
2018-06-22T02:08:36.521Z,60.7
2018-06-22T02:09:36.504Z,60.64
2018-06-22T02:10:36.511Z,60.93
2018-06-22T02:11:36.515Z,61.17
2018-06-22T02:12:36.521Z,61.68
2018-06-22T02:13:36.528Z,61.64
2018-06-22T02:14:36.547Z,61.36
2018-06-22T02:15:36.522Z,61.27
2018-06-22T02:16:36.516Z,61.5
2018-06-22T02:17:36.534Z,61.92
2018-06-22T02:18:36.537Z,61.87
2018-06-22T02:19:36.538Z,62.03
2018-06-22T02:20:36.554Z,62.14
2018-06-22T02:21:36.538Z,62.62
2018-06-22T02:22:36.536Z,62.31
2018-06-22T02:23:36.535Z,62.67
2018-06-22T02:24:36.526Z,62.42
2018-06-22T02:25:36.562Z,62.55
2018-06-22T02:26:36.552Z,62.78
2018-06-22T02:27:36.565Z,63.02
2018-06-22T02:28:36.531Z,62.95
2018-06-22T02:29:36.526Z,62.96
2018-06-22T02:30:36.636Z,63.18
2018-06-22T02:31:36.539Z,63.22
2018-06-22T02:32:36.558Z,62.92
2018-06-22T02:33:36.570Z,62.85
2018-06-22T02:34:36.538Z,62.67
2018-06-22T02:35:36.572Z,62.77
2018-06-22T02:36:36.597Z,62.53
2018-06-22T02:37:36.556Z,62.16
2018-06-22T02:38:36.541Z,62.13
2018-06-22T02:39:36.574Z,61.93
2018-06-22T02:40:36.622Z,61.79
2018-06-22T02:41:36.593Z,61.73
2018-06-22T02:42:36.573Z,62.15
2018-06-22T02:43:36.529Z,61.73
2018-06-22T02:44:36.530Z,61.45
2018-06-22T02:45:36.555Z,61.66
2018-06-22T02:46:36.546Z,61.98
2018-06-22T02:47:36.599Z,62.72
2018-06-22T02:48:36.597Z,62.4
2018-06-22T02:49:36.555Z,63.04
2018-06-22T02:50:36.630Z,63.15
2018-06-22T02:51:36.656Z,63.1
2018-06-22T02:52:36.608Z,63.3
2018-06-22T02:53:36.619Z,63.62
2018-06-22T02:54:36.558Z,63.37
2018-06-22T02:55:36.700Z,63.32
2018-06-22T02:56:36.556Z,63.67
2018-06-22T02:57:36.614Z,63.54
2018-06-22T02:58:36.585Z,63.42
2018-06-22T02:59:36.607Z,63.52
2018-06-22T03:00:36.650Z,63.55
2018-06-22T03:01:36.617Z,63.95
2018-06-22T03:02:36.578Z,63.95
2018-06-22T03:03:36.574Z,64.25
2018-06-22T03:04:36.566Z,63.93
2018-06-22T03:05:36.663Z,64.06
2018-06-22T03:06:36.613Z,64.43
2018-06-22T03:07:36.583Z,64.52
2018-06-22T03:08:36.582Z,64.67
2018-06-22T03:09:36.551Z,64.51
2018-06-22T03:10:36.616Z,64.5
2018-06-22T03:11:36.690Z,63.87
2018-06-22T03:12:36.647Z,64.25
2018-06-22T03:13:36.580Z,64.16
2018-06-22T03:14:36.743Z,63.93
2018-06-22T03:15:36.739Z,63.97
2018-06-22T03:16:36.559Z,64.1
2018-06-22T03:17:36.624Z,64.01
2018-06-22T03:18:36.566Z,63.91
2018-06-22T03:19:36.564Z,63.73
2018-06-22T03:20:36.562Z,64.07
2018-06-22T03:21:36.573Z,63.76
2018-06-22T03:22:36.580Z,64.2
2018-06-22T03:23:36.588Z,64.41
2018-06-22T03:24:36.610Z,63.97
2018-06-22T03:25:36.591Z,64.26
2018-06-22T03:26:36.554Z,64.37
2018-06-22T03:27:36.565Z,64.27
2018-06-22T03:28:36.568Z,64.26
2018-06-22T03:29:36.606Z,64.64
2018-06-22T03:30:36.638Z,64.08
2018-06-22T03:31:36.573Z,64.46
2018-06-22T03:32:36.561Z,64.79
2018-06-22T03:33:36.570Z,64.42
2018-06-22T03:34:36.573Z,64.47
2018-06-22T03:35:36.607Z,64.26
2018-06-22T03:36:36.581Z,64.3
2018-06-22T03:37:36.574Z,64.83
2018-06-22T03:38:36.597Z,64.7
2018-06-22T03:39:36.679Z,64.9
2018-06-22T03:40:36.657Z,65.28
2018-06-22T03:41:36.585Z,65.24
2018-06-22T03:42:36.603Z,64.94
2018-06-22T03:43:36.603Z,64.95
2018-06-22T03:44:36.590Z,65
2018-06-22T03:45:36.609Z,64.58
2018-06-22T03:46:36.585Z,64.69
2018-06-22T03:47:36.578Z,64.27
2018-06-22T03:48:36.605Z,64.28
2018-06-22T03:49:36.620Z,64.32
2018-06-22T03:50:36.578Z,64.35
2018-06-22T03:51:36.704Z,64.05
2018-06-22T03:52:36.587Z,63.74
2018-06-22T03:53:36.591Z,63.85
2018-06-22T03:54:36.610Z,64.2
2018-06-22T03:55:36.602Z,63.98
2018-06-22T03:56:36.597Z,64.01
2018-06-22T03:57:36.617Z,63.9
2018-06-22T03:58:36.618Z,63.5
2018-06-22T03:59:36.623Z,63.42
2018-06-22T04:00:36.659Z,63.34
2018-06-22T04:01:36.585Z,63.23
2018-06-22T04:02:36.602Z,63.01
2018-06-22T04:03:36.603Z,63.37
2018-06-22T04:04:36.596Z,63.13
2018-06-22T04:05:36.603Z,63.31
2018-06-22T04:06:36.605Z,62.88
2018-06-22T04:07:36.604Z,63.23
2018-06-22T04:08:36.644Z,63.47
2018-06-22T04:09:36.639Z,63.22
2018-06-22T04:10:36.600Z,63.39
2018-06-22T04:11:36.620Z,63.35
2018-06-22T04:12:36.616Z,63.2
2018-06-22T04:13:36.616Z,63.44
2018-06-22T04:14:36.633Z,63.35
2018-06-22T04:15:36.615Z,63.42
2018-06-22T04:16:36.634Z,63.58
2018-06-22T04:17:36.604Z,63.41
2018-06-22T04:18:36.605Z,63.64
2018-06-22T04:19:36.610Z,63.64
2018-06-22T04:20:36.664Z,64.05
2018-06-22T04:21:36.610Z,64.37
2018-06-22T04:22:36.600Z,64.72
2018-06-22T04:23:36.633Z,65
2018-06-22T04:24:36.615Z,64.67
2018-06-22T04:25:36.640Z,64.69
2018-06-22T04:26:36.616Z,64.93
2018-06-22T04:27:36.622Z,65.16
2018-06-22T04:28:36.759Z,64.96
2018-06-22T04:29:36.608Z,65.27
2018-06-22T04:30:36.614Z,65.03
2018-06-22T04:31:36.605Z,65.01
2018-06-22T04:32:36.629Z,65.15
2018-06-22T04:33:36.612Z,65.12
2018-06-22T04:34:36.676Z,65.15
2018-06-22T04:35:36.617Z,65.13
2018-06-22T04:36:36.675Z,65.29
2018-06-22T04:37:36.616Z,65.16
2018-06-22T04:38:36.686Z,65.21
2018-06-22T04:39:36.610Z,65.05
2018-06-22T04:40:36.616Z,64.6
2018-06-22T04:41:36.630Z,64.92
2018-06-22T04:42:36.639Z,64.99
2018-06-22T04:43:36.633Z,64.58
2018-06-22T04:44:36.648Z,64.42
2018-06-22T04:45:36.628Z,64.85
2018-06-22T04:46:36.658Z,65.09
2018-06-22T04:47:36.690Z,64.41
2018-06-22T04:48:36.638Z,64.72
2018-06-22T04:49:36.644Z,64.64
2018-06-22T04:50:36.640Z,64.6
2018-06-22T04:51:36.788Z,64.1
2018-06-22T04:52:36.641Z,64.12
2018-06-22T04:53:36.638Z,63.71
2018-06-22T04:54:36.694Z,63.78
2018-06-22T04:55:36.653Z,63.57
2018-06-22T04:56:36.660Z,63.62
2018-06-22T04:57:36.622Z,63.69
2018-06-22T04:58:36.637Z,63.39
2018-06-22T04:59:36.641Z,62.53
2018-06-22T05:00:36.637Z,62.13
2018-06-22T05:01:36.673Z,62.35
2018-06-22T05:02:36.658Z,62.13
2018-06-22T05:03:36.721Z,62.3
2018-06-22T05:04:36.653Z,62.06
2018-06-22T05:05:36.621Z,61.77
2018-06-22T05:06:36.642Z,61.61
2018-06-22T05:07:36.639Z,61.32
2018-06-22T05:08:36.650Z,61.32
2018-06-22T05:09:36.649Z,61.44
2018-06-22T05:10:36.648Z,61.83
2018-06-22T05:11:36.647Z,61.6
2018-06-22T05:12:36.634Z,60.8
2018-06-22T05:13:36.832Z,60.56
2018-06-22T05:14:36.698Z,60.75
2018-06-22T05:15:36.740Z,60.84
2018-06-22T05:16:36.640Z,60.3
2018-06-22T05:17:36.663Z,60.43
2018-06-22T05:18:36.688Z,60.4
2018-06-22T05:19:36.656Z,60.45
2018-06-22T05:20:36.659Z,60.67
2018-06-22T05:21:36.627Z,60.41
2018-06-22T05:22:36.820Z,60.83
2018-06-22T05:23:36.707Z,60.39
2018-06-22T05:24:36.651Z,60.34
2018-06-22T05:25:36.653Z,60.38
2018-06-22T05:26:36.684Z,60.36
2018-06-22T05:27:36.759Z,60.53
2018-06-22T05:28:36.650Z,59.87
2018-06-22T05:29:36.639Z,60.06
2018-06-22T05:30:36.723Z,59.89
2018-06-22T05:31:36.786Z,59.86
2018-06-22T05:32:36.661Z,59.7
2018-06-22T05:33:36.650Z,60.25
2018-06-22T05:34:36.650Z,60.01
2018-06-22T05:35:36.680Z,60.05
2018-06-22T05:36:36.679Z,59.88
2018-06-22T05:37:36.634Z,60.05
2018-06-22T05:38:36.662Z,59.94
2018-06-22T05:39:36.638Z,59.77
2018-06-22T05:40:36.674Z,60.13
2018-06-22T05:41:36.716Z,59.89
2018-06-22T05:42:36.654Z,59.49
2018-06-22T05:43:36.651Z,59.47
2018-06-22T05:44:36.669Z,59.21
2018-06-22T05:45:36.641Z,59.26
2018-06-22T05:46:36.659Z,59.7
2018-06-22T05:47:36.668Z,59.83
2018-06-22T05:48:36.673Z,58.83
2018-06-22T05:49:36.682Z,58.87
2018-06-22T05:50:36.738Z,58.79
2018-06-22T05:51:36.665Z,58.82
2018-06-22T05:52:36.678Z,59.05
2018-06-22T05:53:36.734Z,59.21
2018-06-22T05:54:36.700Z,59.04
2018-06-22T05:55:36.818Z,58.29
2018-06-22T05:56:36.682Z,58.19
2018-06-22T05:57:36.639Z,58.12
2018-06-22T05:58:36.666Z,58.24
2018-06-22T05:59:36.655Z,58.37
2018-06-22T06:00:36.661Z,58.24
2018-06-22T06:01:36.954Z,58.36
2018-06-22T06:02:36.665Z,58.49
2018-06-22T06:03:36.742Z,58.35
2018-06-22T06:04:36.677Z,58.77
2018-06-22T06:05:36.671Z,58.46
2018-06-22T06:06:36.673Z,58.61
2018-06-22T06:07:36.863Z,59.07
2018-06-22T06:08:36.711Z,58.68
2018-06-22T06:09:36.725Z,58.23
2018-06-22T06:10:36.716Z,58.03
2018-06-22T06:11:36.662Z,58.25
2018-06-22T06:12:36.790Z,58.47
2018-06-22T06:13:36.679Z,58.35
2018-06-22T06:14:36.785Z,58.56
2018-06-22T06:15:36.687Z,58.72
2018-06-22T06:16:36.708Z,58.54
2018-06-22T06:17:36.715Z,58.6
2018-06-22T06:18:36.669Z,58.95
2018-06-22T06:19:36.761Z,58.91
2018-06-22T06:20:36.710Z,58.75
2018-06-22T06:21:36.699Z,58.56
2018-06-22T06:22:36.857Z,58.41
2018-06-22T06:23:36.752Z,58.54
2018-06-22T06:24:36.681Z,58.25
2018-06-22T06:25:36.660Z,58.49
2018-06-22T06:26:36.663Z,58.4
2018-06-22T06:27:36.715Z,58.32
2018-06-22T06:28:36.698Z,58.39
2018-06-22T06:29:36.741Z,58.68
2018-06-22T06:30:36.668Z,59.31
2018-06-22T06:31:36.670Z,58.94
2018-06-22T06:32:36.688Z,58.67
2018-06-22T06:33:36.977Z,58.22
2018-06-22T06:34:36.686Z,57.67
2018-06-22T06:35:36.687Z,58.28
2018-06-22T06:36:36.709Z,57.72
2018-06-22T06:37:37.095Z,57.57
2018-06-22T06:38:36.690Z,57.92
2018-06-22T06:39:36.699Z,57.94
2018-06-22T06:40:36.717Z,58.09
2018-06-22T06:41:36.695Z,57.88
2018-06-22T06:42:36.702Z,57.9
2018-06-22T06:43:36.709Z,57.79
2018-06-22T06:44:36.718Z,57.29
2018-06-22T06:45:36.692Z,57.38
2018-06-22T06:46:36.698Z,57.36
2018-06-22T06:47:36.679Z,57.73
2018-06-22T06:48:36.697Z,57.85
2018-06-22T06:49:36.722Z,57.82
2018-06-22T06:50:36.714Z,57.48
2018-06-22T06:51:36.694Z,57.25
2018-06-22T06:52:36.695Z,57.26
2018-06-22T06:53:36.724Z,56.67
2018-06-22T06:54:36.751Z,56.5
2018-06-22T06:55:36.717Z,56.29
2018-06-22T06:56:36.791Z,56.5
2018-06-22T06:57:36.697Z,56.49
2018-06-22T06:58:36.714Z,56.11
2018-06-22T06:59:36.700Z,56.31
2018-06-22T07:00:36.706Z,55.98
2018-06-22T07:01:36.759Z,56.31
2018-06-22T07:02:36.778Z,56.06
2018-06-22T07:03:36.730Z,55.73
2018-06-22T07:04:36.675Z,55.76
2018-06-22T07:05:36.696Z,55.76
2018-06-22T07:06:36.703Z,56.11
2018-06-22T07:07:36.739Z,55.67
2018-06-22T07:08:36.759Z,55.61
2018-06-22T07:09:36.702Z,55.71
2018-06-22T07:10:36.719Z,55.58
2018-06-22T07:11:36.715Z,55.25
2018-06-22T07:12:36.692Z,55.33
2018-06-22T07:13:36.716Z,55
2018-06-22T07:14:36.701Z,54.58
2018-06-22T07:15:36.912Z,55.1
2018-06-22T07:16:36.709Z,54.62
2018-06-22T07:17:36.684Z,54.59
2018-06-22T07:18:36.723Z,54.81
2018-06-22T07:19:36.709Z,54.66
2018-06-22T07:20:36.703Z,54.34
2018-06-22T07:21:36.723Z,54.17
2018-06-22T07:22:36.688Z,53.85
2018-06-22T07:23:36.694Z,54.36
2018-06-22T07:24:36.790Z,54.88
2018-06-22T07:25:36.932Z,54.47
2018-06-22T07:26:36.726Z,54.78
2018-06-22T07:27:36.748Z,55.13
2018-06-22T07:28:36.721Z,53.97
2018-06-22T07:29:36.758Z,53.96
2018-06-22T07:30:36.716Z,53.92
2018-06-22T07:31:36.697Z,53.77
2018-06-22T07:32:36.704Z,53.85
2018-06-22T07:33:36.713Z,54.18
2018-06-22T07:34:36.692Z,54.62
2018-06-22T07:35:36.748Z,54.61
2018-06-22T07:36:36.852Z,54.74
2018-06-22T07:37:36.727Z,55.01
2018-06-22T07:38:36.919Z,55.18
2018-06-22T07:39:36.744Z,55.25
2018-06-22T07:40:36.829Z,55.32
2018-06-22T07:41:36.914Z,55.69
2018-06-22T07:42:36.726Z,55.7
2018-06-22T07:43:36.814Z,55.45
2018-06-22T07:44:36.719Z,55.61
2018-06-22T07:45:36.753Z,55.43
2018-06-22T07:46:36.761Z,55.53
2018-06-22T07:47:36.922Z,55.72
2018-06-22T07:48:36.723Z,55.67
2018-06-22T07:49:36.784Z,55.63
2018-06-22T07:50:36.704Z,55.5
2018-06-22T07:51:36.709Z,55.68
2018-06-22T07:52:36.714Z,55.35
2018-06-22T07:53:36.748Z,54.8
2018-06-22T07:54:36.728Z,55.16
2018-06-22T07:55:36.728Z,55.26
2018-06-22T07:56:36.746Z,55.17
2018-06-22T07:57:36.724Z,55.39
2018-06-22T07:58:36.771Z,53.94
2018-06-22T07:59:36.724Z,53.56
2018-06-22T08:00:36.738Z,53.61
2018-06-22T08:01:36.748Z,53.75
2018-06-22T08:02:36.774Z,54.01
2018-06-22T08:03:36.740Z,53.64
2018-06-22T08:04:36.800Z,52.39
2018-06-22T08:05:36.782Z,52.65
2018-06-22T08:06:36.771Z,52.57
2018-06-22T08:07:36.779Z,52.38
2018-06-22T08:08:36.730Z,52.37
2018-06-22T08:09:36.870Z,52.52
2018-06-22T08:10:36.896Z,52.54
2018-06-22T08:11:36.738Z,51.85
2018-06-22T08:12:36.787Z,52.23
2018-06-22T08:13:36.779Z,51.83
2018-06-22T08:14:36.923Z,51.9
2018-06-22T08:15:36.809Z,51.69
2018-06-22T08:16:36.791Z,51.57
2018-06-22T08:17:37.012Z,51.37
2018-06-22T08:18:36.892Z,51.07
2018-06-22T08:19:36.745Z,51.6
2018-06-22T08:20:36.868Z,51.84
2018-06-22T08:21:37.234Z,51.58
2018-06-22T08:22:36.793Z,51.84
2018-06-22T08:23:36.964Z,52.08
2018-06-22T08:24:36.776Z,52.03
2018-06-22T08:25:36.952Z,51.78
2018-06-22T08:26:37.033Z,52.22
2018-06-22T08:27:36.878Z,52.23
2018-06-22T08:28:36.738Z,52.23
2018-06-22T08:29:36.865Z,51.54
2018-06-22T08:30:36.879Z,51.79
2018-06-22T08:31:36.945Z,51.04
2018-06-22T08:32:36.762Z,51.23
2018-06-22T08:33:36.807Z,51.05
2018-06-22T08:34:36.741Z,51.03
2018-06-22T08:35:36.940Z,50.85
2018-06-22T08:36:36.772Z,50.62
2018-06-22T08:37:36.749Z,50.37
2018-06-22T08:38:36.857Z,50.09
2018-06-22T08:39:36.751Z,50.36
2018-06-22T08:40:36.926Z,49.72
2018-06-22T08:41:36.919Z,49.26
2018-06-22T08:42:37.019Z,48.82
2018-06-22T08:43:36.751Z,49.19
2018-06-22T08:44:36.757Z,48.75
2018-06-22T08:45:37.178Z,49.24
2018-06-22T08:46:36.930Z,48.2
2018-06-22T08:47:37.007Z,47.91
2018-06-22T08:48:36.836Z,48.56
2018-06-22T08:49:36.896Z,48.61
2018-06-22T08:50:36.747Z,48.7
2018-06-22T08:51:36.960Z,48.71
2018-06-22T08:52:36.915Z,48.58
2018-06-22T08:53:36.891Z,49.01
2018-06-22T08:54:36.847Z,49.09
2018-06-22T08:55:36.842Z,49.05
2018-06-22T08:56:37.035Z,49.33
2018-06-22T08:57:36.786Z,49.59
2018-06-22T08:58:36.751Z,49.61
2018-06-22T08:59:36.878Z,48.83
2018-06-22T09:00:36.821Z,49.46
2018-06-22T09:01:36.799Z,49.86
2018-06-22T09:02:36.780Z,49.07
2018-06-22T09:03:36.878Z,49.81
2018-06-22T09:04:36.778Z,49.29
2018-06-22T09:05:36.792Z,49.48
2018-06-22T09:06:36.756Z,49.46
2018-06-22T09:07:36.779Z,49.32
2018-06-22T09:08:36.754Z,49.52
2018-06-22T09:09:36.774Z,49.47
2018-06-22T09:10:36.772Z,49
2018-06-22T09:11:36.745Z,48.72
2018-06-22T09:12:36.832Z,48.95
2018-06-22T09:13:36.756Z,48.64
2018-06-22T09:14:36.836Z,48.79
2018-06-22T09:15:36.791Z,48.95
2018-06-22T09:16:36.774Z,49.32
2018-06-22T09:17:36.791Z,49.46
2018-06-22T09:18:36.825Z,49.34
2018-06-22T09:19:36.786Z,49.37
2018-06-22T09:20:36.782Z,49.13
2018-06-22T09:21:36.878Z,49.29
2018-06-22T09:22:36.875Z,49.39
2018-06-22T09:23:36.977Z,49.37
2018-06-22T09:24:36.877Z,49.43
2018-06-22T09:25:36.770Z,49.44
2018-06-22T09:26:36.774Z,49.49
2018-06-22T09:27:36.785Z,49.65
2018-06-22T09:28:36.905Z,49.86
2018-06-22T09:29:36.969Z,49.87
2018-06-22T09:30:36.909Z,50.02
2018-06-22T09:31:36.770Z,49.82
2018-06-22T09:32:36.777Z,49.73
2018-06-22T09:33:36.768Z,50.17
2018-06-22T09:34:36.826Z,50
2018-06-22T09:35:36.901Z,49.8
2018-06-22T09:36:36.879Z,49.51
2018-06-22T09:37:36.908Z,49.82
2018-06-22T09:38:36.902Z,49.63
2018-06-22T09:39:36.916Z,49.34
2018-06-22T09:40:36.878Z,48.69
2018-06-22T09:41:36.830Z,49
2018-06-22T09:42:36.953Z,49.28
2018-06-22T09:43:36.854Z,49.41
2018-06-22T09:44:37.068Z,49.53
2018-06-22T09:45:36.873Z,48.74
2018-06-22T09:46:36.822Z,48.4
2018-06-22T09:47:37.096Z,48.48
2018-06-22T09:48:37.579Z,48.37
2018-06-22T09:49:36.819Z,48.22
2018-06-22T09:50:36.793Z,48.59
2018-06-22T09:51:36.870Z,48.62
2018-06-22T09:52:36.851Z,48.69
2018-06-22T09:53:36.845Z,48.93
2018-06-22T09:54:36.884Z,49.58
2018-06-22T09:55:36.905Z,48.68
2018-06-22T09:56:36.774Z,48.98
2018-06-22T09:57:36.923Z,48.96
2018-06-22T09:58:36.806Z,48.37
2018-06-22T09:59:37.012Z,48.51
2018-06-22T10:00:36.813Z,48.37
2018-06-22T10:01:36.898Z,48.8
2018-06-22T10:02:36.829Z,48.29
2018-06-22T10:03:36.837Z,46.84
2018-06-22T10:04:36.870Z,47.21
2018-06-22T10:05:37.115Z,47.32
2018-06-22T10:06:37.414Z,47.31
2018-06-22T10:07:36.920Z,47.85
2018-06-22T10:08:36.917Z,46.91
2018-06-22T10:09:36.804Z,47.84
2018-06-22T10:10:36.821Z,47.7
2018-06-22T10:11:36.828Z,47.81
2018-06-22T10:12:36.947Z,47.8
2018-06-22T10:13:36.836Z,47.84
2018-06-22T10:14:36.802Z,47.47
2018-06-22T10:15:36.806Z,47.24
2018-06-22T10:16:36.828Z,47.84
2018-06-22T10:17:36.790Z,46.27
2018-06-22T10:18:36.881Z,45.85
2018-06-22T10:19:36.834Z,46.09
2018-06-22T10:20:36.801Z,45.72
2018-06-22T10:21:36.830Z,45.94
2018-06-22T10:22:36.848Z,46.37
2018-06-22T10:23:36.865Z,45.97
2018-06-22T10:24:36.829Z,46.45
2018-06-22T10:25:36.870Z,45.9
2018-06-22T10:26:36.931Z,46.09
2018-06-22T10:27:36.810Z,46.21
2018-06-22T10:28:36.916Z,46.61
2018-06-22T10:29:36.851Z,46.75
2018-06-22T10:30:36.811Z,45.83
2018-06-22T10:31:36.807Z,45.97
2018-06-22T10:32:36.839Z,45.49
2018-06-22T10:33:36.984Z,46.19
2018-06-22T10:34:36.870Z,45.99
2018-06-22T10:35:37.962Z,46.24
2018-06-22T10:36:37.109Z,46.25
2018-06-22T10:37:37.120Z,46.76
2018-06-22T10:38:36.923Z,46.59
2018-06-22T10:39:36.918Z,46.69
2018-06-22T10:40:37.031Z,46.73
2018-06-22T10:41:36.895Z,46.01
2018-06-22T10:42:36.823Z,45.56
2018-06-22T10:43:36.947Z,46.04
2018-06-22T10:44:37.054Z,45.78
2018-06-22T10:45:36.857Z,45.54
2018-06-22T10:46:36.957Z,45.92
2018-06-22T10:47:37.082Z,45.46
2018-06-22T10:48:36.982Z,45.51
2018-06-22T10:49:37.092Z,45.36
2018-06-22T10:50:36.997Z,45.86
2018-06-22T10:51:37.256Z,45.58
2018-06-22T10:52:37.071Z,46.02
2018-06-22T10:53:36.922Z,45.76
2018-06-22T10:54:36.876Z,44.83
2018-06-22T10:55:37.030Z,44.73
2018-06-22T10:56:36.834Z,44.39
2018-06-22T10:57:37.049Z,44.73
2018-06-22T10:58:36.933Z,44.78
2018-06-22T10:59:37.059Z,44.65
2018-06-22T11:00:37.062Z,44.54
2018-06-22T11:01:36.968Z,44.8
2018-06-22T11:02:37.091Z,43.83
2018-06-22T11:03:36.984Z,43.71
2018-06-22T11:04:36.858Z,43.46
2018-06-22T11:05:37.017Z,43.63
2018-06-22T11:06:37.104Z,43.95
2018-06-22T11:07:36.959Z,43.59
2018-06-22T11:08:36.911Z,43.66
2018-06-22T11:09:37.022Z,43.76
2018-06-22T11:10:36.927Z,43.85
2018-06-22T11:11:37.055Z,43.95
2018-06-22T11:12:37.045Z,44.26
2018-06-22T11:13:36.990Z,44.13
2018-06-22T11:14:36.885Z,44.72
2018-06-22T11:15:36.973Z,44.45
2018-06-22T11:16:37.218Z,44.13
2018-06-22T11:17:36.973Z,44.08
2018-06-22T11:18:36.982Z,44
2018-06-22T11:19:36.898Z,44.27
2018-06-22T11:20:36.984Z,44.3
2018-06-22T11:21:36.852Z,44.45
2018-06-22T11:22:37.019Z,44.61
2018-06-22T11:23:37.029Z,44.56
2018-06-22T11:24:36.975Z,44.26
2018-06-22T11:25:36.880Z,43.25
2018-06-22T11:26:36.841Z,43.08
2018-06-22T11:27:36.893Z,42.79
2018-06-22T11:28:36.869Z,41.93
2018-06-22T11:29:36.849Z,42.17
2018-06-22T11:30:36.961Z,41.64
2018-06-22T11:31:37.075Z,41.42
2018-06-22T11:32:36.835Z,41.14
2018-06-22T11:33:36.982Z,41.27
2018-06-22T11:34:36.947Z,41.9
2018-06-22T11:35:36.861Z,41.36
2018-06-22T11:36:36.865Z,41.68
2018-06-22T11:37:37.011Z,41.66
2018-06-22T11:38:36.999Z,41.96
2018-06-22T11:39:36.844Z,41.72
2018-06-22T11:40:37.240Z,41.72
2018-06-22T11:41:37.040Z,41.43
2018-06-22T11:42:36.906Z,41.91
2018-06-22T11:43:37.154Z,41.64
2018-06-22T11:44:36.902Z,41.08
2018-06-22T11:45:36.930Z,41.1
2018-06-22T11:46:37.098Z,41.04
2018-06-22T11:47:36.881Z,41.31
2018-06-22T11:48:37.088Z,41.75
2018-06-22T11:49:36.991Z,41.7
2018-06-22T11:50:36.913Z,41.87
2018-06-22T11:51:36.935Z,42.02
2018-06-22T11:52:37.010Z,42.58
2018-06-22T11:53:37.220Z,42.04
2018-06-22T11:54:37.088Z,42.11
2018-06-22T11:55:36.937Z,42.37
2018-06-22T11:56:36.857Z,42.34
2018-06-22T11:57:36.927Z,42.02
2018-06-22T11:58:37.016Z,42.37
2018-06-22T11:59:36.890Z,42.53
2018-06-22T12:00:37.068Z,42.63
2018-06-22T12:01:36.975Z,42
2018-06-22T12:02:36.930Z,42.11
2018-06-22T12:03:36.980Z,42.09
2018-06-22T12:04:36.942Z,42.27
2018-06-22T12:05:36.892Z,42.4
2018-06-22T12:06:36.889Z,42.6
2018-06-22T12:07:36.906Z,42.5
2018-06-22T12:08:37.130Z,42.3
2018-06-22T12:09:36.888Z,42.49
2018-06-22T12:10:36.911Z,42.32
2018-06-22T12:11:36.974Z,42.36
2018-06-22T12:12:36.918Z,42.38
2018-06-22T12:13:36.867Z,42.5
2018-06-22T12:14:36.881Z,41.2
2018-06-22T12:15:37.324Z,41.21
2018-06-22T12:16:36.892Z,41.73
2018-06-22T12:17:36.887Z,41.77
2018-06-22T12:18:36.988Z,41.75
2018-06-22T12:19:36.925Z,42.11
2018-06-22T12:20:36.893Z,41.82
2018-06-22T12:21:36.909Z,41.8
2018-06-22T12:22:36.916Z,41.85
2018-06-22T12:23:37.036Z,41.49
2018-06-22T12:24:36.879Z,41.65
2018-06-22T12:25:36.916Z,41.66
2018-06-22T12:26:37.039Z,41.42
2018-06-22T12:27:36.968Z,40.91
2018-06-22T12:28:36.875Z,41.34
2018-06-22T12:29:36.870Z,41.94
2018-06-22T12:30:36.928Z,41.53
2018-06-22T12:31:37.073Z,41.57
2018-06-22T12:32:36.933Z,42.17
2018-06-22T12:33:37.090Z,41.73
2018-06-22T12:34:36.872Z,41.89
2018-06-22T12:35:36.997Z,41.8
2018-06-22T12:36:36.898Z,41.12
2018-06-22T12:37:36.916Z,41.11
2018-06-22T12:38:36.985Z,41.2
2018-06-22T12:39:37.026Z,40.97
2018-06-22T12:40:36.969Z,41.3
2018-06-22T12:41:36.969Z,41.6
2018-06-22T12:42:37.004Z,41.41
2018-06-22T12:43:37.196Z,41.88
2018-06-22T12:44:37.066Z,42.04
2018-06-22T12:45:36.948Z,42.67
2018-06-22T12:46:36.927Z,42.83
2018-06-22T12:47:37.084Z,42.58
2018-06-22T12:48:36.901Z,42.98
2018-06-22T12:49:36.992Z,42.83
2018-06-22T12:50:36.960Z,42.74
2018-06-22T12:51:36.896Z,42.8
2018-06-22T12:52:36.916Z,42.05
2018-06-22T12:53:36.900Z,41.89
2018-06-22T12:54:36.918Z,41.98
2018-06-22T12:55:36.930Z,41.85
2018-06-22T12:56:37.043Z,41.05